sensor_id;sensor_type;location;lat;lon;timestamp;P1;durP1;ratioP1;P2;durP2;ratioP2
47529;SDS011;33272;51.922;7.730;2023-03-14T00:00:14;4.03;;;2.07;;
47529;SDS011;33272;51.922;7.730;2023-03-14T00:02:44;3.93;;;1.93;;
47529;SDS011;33272;51.922;7.730;2023-03-14T00:05:11;5.40;;;1.93;;
47529;SDS011;33272;51.922;7.730;2023-03-14T00:07:38;6.23;;;2.50;;
47529;SDS011;33272;51.922;7.730;2023-03-14T00:10:07;5.40;;;2.10;;
47529;SDS011;33272;51.922;7.730;2023-03-14T00:12:37;3.03;;;1.77;;
47529;SDS011;33272;51.922;7.730;2023-03-14T00:15:06;4.73;;;2.07;;
47529;SDS011;33272;51.922;7.730;2023-03-14T00:17:34;5.60;;;1.90;;
47529;SDS011;33272;51.922;7.730;2023-03-14T00:20:04;5.47;;;2.20;;
47529;SDS011;33272;51.922;7.730;2023-03-14T00:22:35;4.13;;;2.30;;
47529;SDS011;33272;51.922;7.730;2023-03-14T00:25:02;4.27;;;2.10;;
47529;SDS011;33272;51.922;7.730;2023-03-14T00:27:31;5.97;;;1.87;;
47529;SDS011;33272;51.922;7.730;2023-03-14T00:29:58;6.17;;;2.57;;
47529;SDS011;33272;51.922;7.730;2023-03-14T00:32:25;6.27;;;2.03;;
47529;SDS011;33272;51.922;7.730;2023-03-14T00:34:52;6.13;;;2.10;;
47529;SDS011;33272;51.922;7.730;2023-03-14T00:37:21;5.20;;;2.33;;
47529;SDS011;33272;51.922;7.730;2023-03-14T00:39:48;7.67;;;1.97;;
47529;SDS011;33272;51.922;7.730;2023-03-14T00:42:17;5.73;;;1.70;;
47529;SDS011;33272;51.922;7.730;2023-03-14T00:44:44;4.43;;;2.00;;
47529;SDS011;33272;51.922;7.730;2023-03-14T00:47:11;4.03;;;1.80;;
47529;SDS011;33272;51.922;7.730;2023-03-14T00:49:38;4.57;;;1.90;;
47529;SDS011;33272;51.922;7.730;2023-03-14T00:52:08;5.27;;;1.90;;
47529;SDS011;33272;51.922;7.730;2023-03-14T00:54:37;5.67;;;2.10;;
47529;SDS011;33272;51.922;7.730;2023-03-14T00:57:04;5.70;;;2.50;;
47529;SDS011;33272;51.922;7.730;2023-03-14T00:59:31;3.53;;;1.43;;
47529;SDS011;33272;51.922;7.730;2023-03-14T01:01:58;4.23;;;2.00;;
47529;SDS011;33272;51.922;7.730;2023-03-14T01:04:25;3.67;;;1.70;;
47529;SDS011;33272;51.922;7.730;2023-03-14T01:06:52;2.73;;;1.73;;
47529;SDS011;33272;51.922;7.730;2023-03-14T01:09:19;5.27;;;1.67;;
47529;SDS011;33272;51.922;7.730;2023-03-14T01:11:47;5.63;;;1.70;;
47529;SDS011;33272;51.922;7.730;2023-03-14T01:14:14;6.27;;;2.30;;
47529;SDS011;33272;51.922;7.730;2023-03-14T01:16:41;4.63;;;1.80;;
47529;SDS011;33272;51.922;7.730;2023-03-14T01:19:08;5.70;;;1.70;;
47529;SDS011;33272;51.922;7.730;2023-03-14T01:21:36;6.30;;;2.23;;
47529;SDS011;33272;51.922;7.730;2023-03-14T01:24:04;6.03;;;2.00;;
47529;SDS011;33272;51.922;7.730;2023-03-14T01:26:32;3.90;;;1.80;;
47529;SDS011;33272;51.922;7.730;2023-03-14T01:29:03;4.10;;;2.00;;
47529;SDS011;33272;51.922;7.730;2023-03-14T01:31:30;5.67;;;2.13;;
47529;SDS011;33272;51.922;7.730;2023-03-14T01:33:57;3.77;;;1.70;;
47529;SDS011;33272;51.922;7.730;2023-03-14T01:36:24;6.63;;;1.70;;
47529;SDS011;33272;51.922;7.730;2023-03-14T01:38:51;5.30;;;1.80;;
47529;SDS011;33272;51.922;7.730;2023-03-14T01:41:19;5.03;;;2.00;;
47529;SDS011;33272;51.922;7.730;2023-03-14T01:43:49;5.53;;;2.27;;
47529;SDS011;33272;51.922;7.730;2023-03-14T01:46:29;5.87;;;1.80;;
47529;SDS011;33272;51.922;7.730;2023-03-14T01:49:04;5.13;;;1.70;;
47529;SDS011;33272;51.922;7.730;2023-03-14T01:51:42;2.40;;;1.27;;
47529;SDS011;33272;51.922;7.730;2023-03-14T01:54:16;5.13;;;1.80;;
47529;SDS011;33272;51.922;7.730;2023-03-14T01:56:48;4.13;;;1.73;;
47529;SDS011;33272;51.922;7.730;2023-03-14T01:59:20;4.07;;;1.87;;
47529;SDS011;33272;51.922;7.730;2023-03-14T02:01:48;4.60;;;1.43;;
47529;SDS011;33272;51.922;7.730;2023-03-14T02:04:17;5.30;;;1.70;;
47529;SDS011;33272;51.922;7.730;2023-03-14T02:06:48;4.17;;;1.80;;
47529;SDS011;33272;51.922;7.730;2023-03-14T02:09:21;5.10;;;1.60;;
47529;SDS011;33272;51.922;7.730;2023-03-14T02:11:49;2.37;;;1.37;;
47529;SDS011;33272;51.922;7.730;2023-03-14T02:14:20;2.30;;;1.10;;
47529;SDS011;33272;51.922;7.730;2023-03-14T02:16:59;2.57;;;1.10;;
47529;SDS011;33272;51.922;7.730;2023-03-14T02:19:31;3.37;;;1.10;;
47529;SDS011;33272;51.922;7.730;2023-03-14T02:22:14;2.97;;;1.50;;
47529;SDS011;33272;51.922;7.730;2023-03-14T02:24:43;4.20;;;1.50;;
47529;SDS011;33272;51.922;7.730;2023-03-14T02:27:23;3.17;;;1.10;;
47529;SDS011;33272;51.922;7.730;2023-03-14T02:29:52;3.07;;;1.30;;
47529;SDS011;33272;51.922;7.730;2023-03-14T02:32:22;4.60;;;1.60;;
47529;SDS011;33272;51.922;7.730;2023-03-14T02:34:52;3.40;;;1.00;;
47529;SDS011;33272;51.922;7.730;2023-03-14T02:37:24;2.40;;;1.37;;
47529;SDS011;33272;51.922;7.730;2023-03-14T02:39:57;7.00;;;1.40;;
47529;SDS011;33272;51.922;7.730;2023-03-14T02:42:26;2.73;;;1.37;;
47529;SDS011;33272;51.922;7.730;2023-03-14T02:44:54;1.97;;;1.23;;
47529;SDS011;33272;51.922;7.730;2023-03-14T02:47:42;2.87;;;1.47;;
47529;SDS011;33272;51.922;7.730;2023-03-14T02:50:13;3.00;;;1.70;;
47529;SDS011;33272;51.922;7.730;2023-03-14T02:52:45;3.73;;;1.13;;
47529;SDS011;33272;51.922;7.730;2023-03-14T02:55:19;3.37;;;1.30;;
47529;SDS011;33272;51.922;7.730;2023-03-14T02:57:48;2.97;;;1.20;;
47529;SDS011;33272;51.922;7.730;2023-03-14T03:00:16;5.77;;;1.10;;
47529;SDS011;33272;51.922;7.730;2023-03-14T03:02:44;3.03;;;1.33;;
47529;SDS011;33272;51.922;7.730;2023-03-14T03:05:11;2.83;;;1.23;;
47529;SDS011;33272;51.922;7.730;2023-03-14T03:07:38;3.40;;;1.23;;
47529;SDS011;33272;51.922;7.730;2023-03-14T03:10:06;1.90;;;1.23;;
47529;SDS011;33272;51.922;7.730;2023-03-14T03:12:35;3.67;;;1.50;;
47529;SDS011;33272;51.922;7.730;2023-03-14T03:15:03;3.87;;;1.50;;
47529;SDS011;33272;51.922;7.730;2023-03-14T03:17:31;4.47;;;2.17;;
47529;SDS011;33272;51.922;7.730;2023-03-14T03:19:58;3.97;;;1.33;;
47529;SDS011;33272;51.922;7.730;2023-03-14T03:22:25;3.47;;;1.37;;
47529;SDS011;33272;51.922;7.730;2023-03-14T03:24:52;2.70;;;1.30;;
47529;SDS011;33272;51.922;7.730;2023-03-14T03:27:19;3.03;;;1.30;;
47529;SDS011;33272;51.922;7.730;2023-03-14T03:29:46;5.90;;;1.70;;
47529;SDS011;33272;51.922;7.730;2023-03-14T03:32:14;6.17;;;1.60;;
47529;SDS011;33272;51.922;7.730;2023-03-14T03:34:42;4.23;;;1.40;;
47529;SDS011;33272;51.922;7.730;2023-03-14T03:37:09;4.73;;;1.80;;
47529;SDS011;33272;51.922;7.730;2023-03-14T03:39:36;4.50;;;1.63;;
47529;SDS011;33272;51.922;7.730;2023-03-14T03:42:03;4.80;;;2.07;;
47529;SDS011;33272;51.922;7.730;2023-03-14T03:44:30;3.37;;;1.50;;
47529;SDS011;33272;51.922;7.730;2023-03-14T03:46:57;6.63;;;2.00;;
47529;SDS011;33272;51.922;7.730;2023-03-14T03:49:29;4.83;;;2.13;;
47529;SDS011;33272;51.922;7.730;2023-03-14T03:51:56;5.03;;;1.80;;
47529;SDS011;33272;51.922;7.730;2023-03-14T03:54:24;4.63;;;2.20;;
47529;SDS011;33272;51.922;7.730;2023-03-14T03:56:51;5.97;;;2.23;;
47529;SDS011;33272;51.922;7.730;2023-03-14T03:59:18;6.83;;;2.10;;
47529;SDS011;33272;51.922;7.730;2023-03-14T04:01:45;6.80;;;2.47;;
47529;SDS011;33272;51.922;7.730;2023-03-14T04:04:12;6.07;;;1.83;;
47529;SDS011;33272;51.922;7.730;2023-03-14T04:06:41;7.83;;;2.50;;
47529;SDS011;33272;51.922;7.730;2023-03-14T04:09:08;8.13;;;2.23;;
47529;SDS011;33272;51.922;7.730;2023-03-14T04:11:35;8.07;;;2.27;;
47529;SDS011;33272;51.922;7.730;2023-03-14T04:14:02;4.85;;;2.30;;
47529;SDS011;33272;51.922;7.730;2023-03-14T04:16:30;5.63;;;2.13;;
47529;SDS011;33272;51.922;7.730;2023-03-14T04:18:57;5.13;;;1.67;;
47529;SDS011;33272;51.922;7.730;2023-03-14T04:21:24;7.13;;;1.87;;
47529;SDS011;33272;51.922;7.730;2023-03-14T04:23:52;3.07;;;1.93;;
47529;SDS011;33272;51.922;7.730;2023-03-14T04:26:19;4.83;;;2.13;;
47529;SDS011;33272;51.922;7.730;2023-03-14T04:28:47;5.33;;;2.27;;
47529;SDS011;33272;51.922;7.730;2023-03-14T04:31:15;3.20;;;1.50;;
47529;SDS011;33272;51.922;7.730;2023-03-14T04:33:43;6.67;;;2.47;;
47529;SDS011;33272;51.922;7.730;2023-03-14T04:36:11;4.30;;;1.80;;
47529;SDS011;33272;51.922;7.730;2023-03-14T04:38:39;6.27;;;1.90;;
47529;SDS011;33272;51.922;7.730;2023-03-14T04:41:07;4.83;;;1.70;;
47529;SDS011;33272;51.922;7.730;2023-03-14T04:43:34;6.17;;;2.10;;
47529;SDS011;33272;51.922;7.730;2023-03-14T04:46:01;5.20;;;1.80;;
47529;SDS011;33272;51.922;7.730;2023-03-14T04:48:29;2.80;;;1.60;;
47529;SDS011;33272;51.922;7.730;2023-03-14T04:50:56;5.40;;;2.10;;
47529;SDS011;33272;51.922;7.730;2023-03-14T04:53:23;7.20;;;2.13;;
47529;SDS011;33272;51.922;7.730;2023-03-14T04:55:50;7.13;;;2.53;;
47529;SDS011;33272;51.922;7.730;2023-03-14T04:58:20;5.50;;;2.10;;
47529;SDS011;33272;51.922;7.730;2023-03-14T05:00:48;3.73;;;1.50;;
47529;SDS011;33272;51.922;7.730;2023-03-14T05:03:16;6.10;;;1.53;;
47529;SDS011;33272;51.922;7.730;2023-03-14T05:05:44;5.23;;;2.00;;
47529;SDS011;33272;51.922;7.730;2023-03-14T05:08:11;3.87;;;2.10;;
47529;SDS011;33272;51.922;7.730;2023-03-14T05:10:39;9.77;;;2.23;;
47529;SDS011;33272;51.922;7.730;2023-03-14T05:13:06;7.40;;;2.77;;
47529;SDS011;33272;51.922;7.730;2023-03-14T05:15:34;7.73;;;2.50;;
47529;SDS011;33272;51.922;7.730;2023-03-14T05:18:01;5.53;;;1.83;;
47529;SDS011;33272;51.922;7.730;2023-03-14T05:20:28;4.23;;;2.10;;
47529;SDS011;33272;51.922;7.730;2023-03-14T05:22:56;4.30;;;1.67;;
47529;SDS011;33272;51.922;7.730;2023-03-14T05:25:23;4.67;;;1.63;;
47529;SDS011;33272;51.922;7.730;2023-03-14T05:27:50;4.63;;;2.03;;
47529;SDS011;33272;51.922;7.730;2023-03-14T05:30:20;4.67;;;1.57;;
47529;SDS011;33272;51.922;7.730;2023-03-14T05:32:49;3.13;;;1.63;;
47529;SDS011;33272;51.922;7.730;2023-03-14T05:35:16;2.97;;;1.30;;
47529;SDS011;33272;51.922;7.730;2023-03-14T05:37:43;2.50;;;1.27;;
47529;SDS011;33272;51.922;7.730;2023-03-14T05:40:10;5.13;;;1.47;;
47529;SDS011;33272;51.922;7.730;2023-03-14T05:42:38;2.27;;;1.30;;
47529;SDS011;33272;51.922;7.730;2023-03-14T05:45:05;3.27;;;1.30;;
47529;SDS011;33272;51.922;7.730;2023-03-14T05:47:33;2.83;;;1.00;;
47529;SDS011;33272;51.922;7.730;2023-03-14T05:50:02;2.83;;;1.20;;
47529;SDS011;33272;51.922;7.730;2023-03-14T05:52:29;1.17;;;1.00;;
47529;SDS011;33272;51.922;7.730;2023-03-14T05:54:56;2.17;;;0.90;;
47529;SDS011;33272;51.922;7.730;2023-03-14T05:57:23;2.00;;;0.90;;
47529;SDS011;33272;51.922;7.730;2023-03-14T05:59:50;3.07;;;1.53;;
47529;SDS011;33272;51.922;7.730;2023-03-14T06:02:17;2.93;;;1.10;;
47529;SDS011;33272;51.922;7.730;2023-03-14T06:04:44;2.30;;;1.00;;
47529;SDS011;33272;51.922;7.730;2023-03-14T06:07:12;4.73;;;1.10;;
47529;SDS011;33272;51.922;7.730;2023-03-14T06:09:39;2.40;;;1.10;;
47529;SDS011;33272;51.922;7.730;2023-03-14T06:12:06;2.17;;;0.97;;
47529;SDS011;33272;51.922;7.730;2023-03-14T06:14:33;1.40;;;0.90;;
47529;SDS011;33272;51.922;7.730;2023-03-14T06:17:00;1.80;;;1.00;;
47529;SDS011;33272;51.922;7.730;2023-03-14T06:19:27;2.00;;;1.00;;
47529;SDS011;33272;51.922;7.730;2023-03-14T06:21:54;3.33;;;1.10;;
47529;SDS011;33272;51.922;7.730;2023-03-14T06:24:23;2.13;;;1.23;;
47529;SDS011;33272;51.922;7.730;2023-03-14T06:26:50;3.00;;;1.33;;
47529;SDS011;33272;51.922;7.730;2023-03-14T06:29:16;1.60;;;1.03;;
47529;SDS011;33272;51.922;7.730;2023-03-14T06:31:43;3.30;;;1.13;;
47529;SDS011;33272;51.922;7.730;2023-03-14T06:34:10;2.50;;;1.27;;
47529;SDS011;33272;51.922;7.730;2023-03-14T06:36:38;2.30;;;1.30;;
47529;SDS011;33272;51.922;7.730;2023-03-14T06:39:05;3.00;;;1.10;;
47529;SDS011;33272;51.922;7.730;2023-03-14T06:41:34;2.53;;;0.90;;
47529;SDS011;33272;51.922;7.730;2023-03-14T06:44:01;3.77;;;2.23;;
47529;SDS011;33272;51.922;7.730;2023-03-14T06:46:28;1.40;;;0.97;;
47529;SDS011;33272;51.922;7.730;2023-03-14T06:48:55;2.60;;;1.40;;
47529;SDS011;33272;51.922;7.730;2023-03-14T06:51:22;2.10;;;1.30;;
47529;SDS011;33272;51.922;7.730;2023-03-14T06:53:49;2.07;;;1.00;;
47529;SDS011;33272;51.922;7.730;2023-03-14T06:56:16;1.53;;;1.07;;
47529;SDS011;33272;51.922;7.730;2023-03-14T06:58:44;1.50;;;1.20;;
47529;SDS011;33272;51.922;7.730;2023-03-14T07:01:15;2.53;;;1.70;;
47529;SDS011;33272;51.922;7.730;2023-03-14T07:03:48;1.67;;;1.37;;
47529;SDS011;33272;51.922;7.730;2023-03-14T07:06:15;2.77;;;1.70;;
47529;SDS011;33272;51.922;7.730;2023-03-14T07:08:43;1.97;;;1.70;;
47529;SDS011;33272;51.922;7.730;2023-03-14T07:11:09;2.27;;;2.07;;
47529;SDS011;33272;51.922;7.730;2023-03-14T07:13:37;2.47;;;2.10;;
47529;SDS011;33272;51.922;7.730;2023-03-14T07:16:06;2.07;;;1.87;;
47529;SDS011;33272;51.922;7.730;2023-03-14T07:18:34;2.83;;;1.70;;
47529;SDS011;33272;51.922;7.730;2023-03-14T07:21:02;2.37;;;1.50;;
47529;SDS011;33272;51.922;7.730;2023-03-14T07:23:29;2.07;;;1.80;;
47529;SDS011;33272;51.922;7.730;2023-03-14T07:25:56;3.27;;;2.10;;
47529;SDS011;33272;51.922;7.730;2023-03-14T07:28:23;2.63;;;2.10;;
47529;SDS011;33272;51.922;7.730;2023-03-14T07:30:52;2.50;;;2.30;;
47529;SDS011;33272;51.922;7.730;2023-03-14T07:33:20;3.10;;;2.57;;
47529;SDS011;33272;51.922;7.730;2023-03-14T07:35:47;2.73;;;2.10;;
47529;SDS011;33272;51.922;7.730;2023-03-14T07:38:14;3.03;;;2.20;;
47529;SDS011;33272;51.922;7.730;2023-03-14T07:40:41;2.80;;;2.07;;
47529;SDS011;33272;51.922;7.730;2023-03-14T07:43:08;2.50;;;2.30;;
47529;SDS011;33272;51.922;7.730;2023-03-14T07:45:36;2.97;;;2.37;;
47529;SDS011;33272;51.922;7.730;2023-03-14T07:48:03;3.43;;;2.40;;
47529;SDS011;33272;51.922;7.730;2023-03-14T07:50:31;3.30;;;2.60;;
47529;SDS011;33272;51.922;7.730;2023-03-14T07:52:58;6.13;;;2.60;;
47529;SDS011;33272;51.922;7.730;2023-03-14T07:55:25;3.87;;;2.70;;
47529;SDS011;33272;51.922;7.730;2023-03-14T07:57:52;3.10;;;2.73;;
47529;SDS011;33272;51.922;7.730;2023-03-14T08:00:20;3.30;;;2.90;;
47529;SDS011;33272;51.922;7.730;2023-03-14T08:02:47;3.40;;;3.10;;
47529;SDS011;33272;51.922;7.730;2023-03-14T08:05:14;3.97;;;2.77;;
47529;SDS011;33272;51.922;7.730;2023-03-14T08:07:43;3.10;;;2.80;;
47529;SDS011;33272;51.922;7.730;2023-03-14T08:10:10;4.37;;;3.97;;
47529;SDS011;33272;51.922;7.730;2023-03-14T08:12:40;3.13;;;2.40;;
47529;SDS011;33272;51.922;7.730;2023-03-14T08:15:08;5.10;;;3.33;;
47529;SDS011;33272;51.922;7.730;2023-03-14T08:17:36;2.57;;;2.30;;
47529;SDS011;33272;51.922;7.730;2023-03-14T08:20:06;2.93;;;2.30;;
47529;SDS011;33272;51.922;7.730;2023-03-14T08:22:36;3.10;;;2.80;;
47529;SDS011;33272;51.922;7.730;2023-03-14T08:25:05;3.20;;;2.90;;
47529;SDS011;33272;51.922;7.730;2023-03-14T08:27:33;3.40;;;3.10;;
47529;SDS011;33272;51.922;7.730;2023-03-14T08:30:03;3.50;;;2.67;;
47529;SDS011;33272;51.922;7.730;2023-03-14T08:32:32;3.33;;;2.93;;
47529;SDS011;33272;51.922;7.730;2023-03-14T08:34:59;3.33;;;2.77;;
47529;SDS011;33272;51.922;7.730;2023-03-14T08:37:26;2.57;;;2.37;;
47529;SDS011;33272;51.922;7.730;2023-03-14T08:39:53;3.70;;;3.20;;
47529;SDS011;33272;51.922;7.730;2023-03-14T08:42:22;3.63;;;3.17;;
47529;SDS011;33272;51.922;7.730;2023-03-14T08:44:50;5.13;;;3.17;;
47529;SDS011;33272;51.922;7.730;2023-03-14T08:47:17;4.83;;;3.13;;
47529;SDS011;33272;51.922;7.730;2023-03-14T08:49:45;3.53;;;2.63;;
47529;SDS011;33272;51.922;7.730;2023-03-14T08:52:13;3.40;;;3.10;;
47529;SDS011;33272;51.922;7.730;2023-03-14T08:54:41;4.30;;;3.80;;
47529;SDS011;33272;51.922;7.730;2023-03-14T08:57:09;4.30;;;3.17;;
47529;SDS011;33272;51.922;7.730;2023-03-14T08:59:38;3.30;;;3.00;;
47529;SDS011;33272;51.922;7.730;2023-03-14T09:02:05;3.67;;;3.17;;
47529;SDS011;33272;51.922;7.730;2023-03-14T09:04:32;3.03;;;2.73;;
47529;SDS011;33272;51.922;7.730;2023-03-14T09:06:59;3.43;;;3.13;;
47529;SDS011;33272;51.922;7.730;2023-03-14T09:09:28;3.23;;;2.87;;
47529;SDS011;33272;51.922;7.730;2023-03-14T09:11:55;3.03;;;2.73;;
47529;SDS011;33272;51.922;7.730;2023-03-14T09:14:23;5.37;;;3.53;;
47529;SDS011;33272;51.922;7.730;2023-03-14T09:16:52;4.53;;;3.00;;
47529;SDS011;33272;51.922;7.730;2023-03-14T09:19:19;3.43;;;3.10;;
47529;SDS011;33272;51.922;7.730;2023-03-14T09:21:46;4.43;;;3.00;;
47529;SDS011;33272;51.922;7.730;2023-03-14T09:24:13;3.20;;;2.90;;
47529;SDS011;33272;51.922;7.730;2023-03-14T09:26:41;3.20;;;2.90;;
47529;SDS011;33272;51.922;7.730;2023-03-14T09:29:08;3.83;;;2.90;;
47529;SDS011;33272;51.922;7.730;2023-03-14T09:31:35;3.07;;;2.87;;
47529;SDS011;33272;51.922;7.730;2023-03-14T09:34:04;3.40;;;3.10;;
47529;SDS011;33272;51.922;7.730;2023-03-14T09:36:31;3.27;;;2.97;;
47529;SDS011;33272;51.922;7.730;2023-03-14T09:38:58;3.33;;;3.03;;
47529;SDS011;33272;51.922;7.730;2023-03-14T09:41:25;3.77;;;2.80;;
47529;SDS011;33272;51.922;7.730;2023-03-14T09:44:00;3.47;;;3.17;;
47529;SDS011;33272;51.922;7.730;2023-03-14T09:46:31;3.60;;;3.30;;
47529;SDS011;33272;51.922;7.730;2023-03-14T09:49:01;3.43;;;3.10;;
47529;SDS011;33272;51.922;7.730;2023-03-14T09:51:36;6.67;;;3.43;;
47529;SDS011;33272;51.922;7.730;2023-03-14T09:54:03;4.73;;;1.60;;
47529;SDS011;33272;51.922;7.730;2023-03-14T09:56:41;1.30;;;0.60;;
47529;SDS011;33272;51.922;7.730;2023-03-14T09:59:08;1.17;;;0.73;;
47529;SDS011;33272;51.922;7.730;2023-03-14T10:01:38;0.70;;;0.70;;
47529;SDS011;33272;51.922;7.730;2023-03-14T10:04:10;0.63;;;0.63;;
47529;SDS011;33272;51.922;7.730;2023-03-14T10:06:43;1.47;;;0.60;;
47529;SDS011;33272;51.922;7.730;2023-03-14T10:09:10;1.20;;;0.50;;
47529;SDS011;33272;51.922;7.730;2023-03-14T10:11:43;0.63;;;0.50;;
47529;SDS011;33272;51.922;7.730;2023-03-14T10:14:11;1.40;;;0.60;;
47529;SDS011;33272;51.922;7.730;2023-03-14T10:16:40;2.63;;;1.03;;
47529;SDS011;33272;51.922;7.730;2023-03-14T10:19:12;0.90;;;0.90;;
47529;SDS011;33272;51.922;7.730;2023-03-14T10:21:41;0.80;;;0.70;;
47529;SDS011;33272;51.922;7.730;2023-03-14T10:24:16;0.70;;;0.70;;
47529;SDS011;33272;51.922;7.730;2023-03-14T10:26:51;0.50;;;0.50;;
47529;SDS011;33272;51.922;7.730;2023-03-14T10:29:20;0.60;;;0.60;;
47529;SDS011;33272;51.922;7.730;2023-03-14T10:31:50;0.97;;;0.80;;
47529;SDS011;33272;51.922;7.730;2023-03-14T10:34:23;1.10;;;0.70;;
47529;SDS011;33272;51.922;7.730;2023-03-14T10:36:52;0.70;;;0.70;;
47529;SDS011;33272;51.922;7.730;2023-03-14T10:39:25;1.77;;;0.73;;
47529;SDS011;33272;51.922;7.730;2023-03-14T10:42:04;0.97;;;0.70;;
47529;SDS011;33272;51.922;7.730;2023-03-14T10:44:39;0.50;;;0.50;;
47529;SDS011;33272;51.922;7.730;2023-03-14T10:47:12;0.50;;;0.50;;
47529;SDS011;33272;51.922;7.730;2023-03-14T10:49:46;0.50;;;0.50;;
47529;SDS011;33272;51.922;7.730;2023-03-14T10:52:15;0.50;;;0.50;;
47529;SDS011;33272;51.922;7.730;2023-03-14T10:54:48;1.00;;;0.70;;
47529;SDS011;33272;51.922;7.730;2023-03-14T10:57:21;0.77;;;0.60;;
47529;SDS011;33272;51.922;7.730;2023-03-14T10:59:49;0.80;;;0.80;;
47529;SDS011;33272;51.922;7.730;2023-03-14T11:02:30;0.97;;;0.77;;
47529;SDS011;33272;51.922;7.730;2023-03-14T11:05:18;1.27;;;0.90;;
47529;SDS011;33272;51.922;7.730;2023-03-14T11:07:56;0.73;;;0.60;;
47529;SDS011;33272;51.922;7.730;2023-03-14T11:10:31;0.70;;;0.70;;
47529;SDS011;33272;51.922;7.730;2023-03-14T11:13:01;1.00;;;0.70;;
47529;SDS011;33272;51.922;7.730;2023-03-14T11:15:41;0.87;;;0.60;;
47529;SDS011;33272;51.922;7.730;2023-03-14T11:18:23;0.90;;;0.67;;
47529;SDS011;33272;51.922;7.730;2023-03-14T11:21:26;0.50;;;0.50;;
47529;SDS011;33272;51.922;7.730;2023-03-14T11:24:03;0.73;;;0.50;;
47529;SDS011;33272;51.922;7.730;2023-03-14T11:26:50;1.10;;;0.70;;
47529;SDS011;33272;51.922;7.730;2023-03-14T11:29:27;2.40;;;1.00;;
47529;SDS011;33272;51.922;7.730;2023-03-14T11:32:10;1.20;;;0.87;;
47529;SDS011;33272;51.922;7.730;2023-03-14T11:34:47;1.80;;;1.10;;
47529;SDS011;33272;51.922;7.730;2023-03-14T11:37:21;2.57;;;1.10;;
47529;SDS011;33272;51.922;7.730;2023-03-14T11:39:56;1.73;;;1.13;;
47529;SDS011;33272;51.922;7.730;2023-03-14T11:42:31;1.87;;;0.80;;
47529;SDS011;33272;51.922;7.730;2023-03-14T11:44:59;0.93;;;0.87;;
47529;SDS011;33272;51.922;7.730;2023-03-14T11:47:29;1.60;;;1.00;;
47529;SDS011;33272;51.922;7.730;2023-03-14T11:50:01;2.20;;;0.97;;
47529;SDS011;33272;51.922;7.730;2023-03-14T11:52:35;1.73;;;1.17;;
47529;SDS011;33272;51.922;7.730;2023-03-14T11:55:07;2.23;;;1.10;;
47529;SDS011;33272;51.922;7.730;2023-03-14T11:57:43;2.77;;;0.80;;
47529;SDS011;33272;51.922;7.730;2023-03-14T12:00:13;2.73;;;1.30;;
47529;SDS011;33272;51.922;7.730;2023-03-14T12:02:46;4.03;;;1.17;;
47529;SDS011;33272;51.922;7.730;2023-03-14T12:11:15;3.57;;;1.33;;
47529;SDS011;33272;51.922;7.730;2023-03-14T12:13:52;5.27;;;1.60;;
47529;SDS011;33272;51.922;7.730;2023-03-14T12:16:27;3.33;;;1.50;;
47529;SDS011;33272;51.922;7.730;2023-03-14T12:19:24;3.87;;;1.50;;
47529;SDS011;33272;51.922;7.730;2023-03-14T12:24:55;5.23;;;2.03;;
47529;SDS011;33272;51.922;7.730;2023-03-14T12:27:44;5.00;;;2.10;;
47529;SDS011;33272;51.922;7.730;2023-03-14T12:30:30;8.17;;;2.10;;
47529;SDS011;33272;51.922;7.730;2023-03-14T12:33:21;7.90;;;2.73;;
47529;SDS011;33272;51.922;7.730;2023-03-14T12:35:58;5.00;;;1.97;;
47529;SDS011;33272;51.922;7.730;2023-03-14T12:38:29;3.37;;;1.60;;
47529;SDS011;33272;51.922;7.730;2023-03-14T12:41:17;8.33;;;2.30;;
47529;SDS011;33272;51.922;7.730;2023-03-14T12:43:50;4.90;;;2.00;;
47529;SDS011;33272;51.922;7.730;2023-03-14T12:46:21;7.47;;;2.07;;
47529;SDS011;33272;51.922;7.730;2023-03-14T12:48:54;7.83;;;1.90;;
47529;SDS011;33272;51.922;7.730;2023-03-14T12:51:30;8.57;;;2.37;;
47529;SDS011;33272;51.922;7.730;2023-03-14T12:57:11;7.50;;;2.27;;
47529;SDS011;33272;51.922;7.730;2023-03-14T12:59:51;8.00;;;2.70;;
47529;SDS011;33272;51.922;7.730;2023-03-14T13:02:23;6.60;;;2.90;;
47529;SDS011;33272;51.922;7.730;2023-03-14T13:05:05;7.00;;;2.60;;
47529;SDS011;33272;51.922;7.730;2023-03-14T13:10:38;6.97;;;2.60;;
47529;SDS011;33272;51.922;7.730;2023-03-14T13:13:17;7.27;;;2.23;;
47529;SDS011;33272;51.922;7.730;2023-03-14T13:15:48;10.73;;;2.60;;
47529;SDS011;33272;51.922;7.730;2023-03-14T13:18:24;9.33;;;2.30;;
47529;SDS011;33272;51.922;7.730;2023-03-14T13:20:58;12.13;;;3.13;;
47529;SDS011;33272;51.922;7.730;2023-03-14T13:23:30;13.77;;;3.40;;
47529;SDS011;33272;51.922;7.730;2023-03-14T13:26:00;10.20;;;2.70;;
47529;SDS011;33272;51.922;7.730;2023-03-14T13:28:29;11.73;;;3.80;;
47529;SDS011;33272;51.922;7.730;2023-03-14T13:30:58;9.80;;;2.53;;
47529;SDS011;33272;51.922;7.730;2023-03-14T13:33:28;11.90;;;3.20;;
47529;SDS011;33272;51.922;7.730;2023-03-14T13:35:56;14.23;;;3.30;;
47529;SDS011;33272;51.922;7.730;2023-03-14T13:38:25;7.20;;;3.10;;
47529;SDS011;33272;51.922;7.730;2023-03-14T13:40:54;11.93;;;3.07;;
47529;SDS011;33272;51.922;7.730;2023-03-14T13:43:25;13.63;;;4.03;;
47529;SDS011;33272;51.922;7.730;2023-03-14T13:46:00;10.10;;;2.93;;
47529;SDS011;33272;51.922;7.730;2023-03-14T13:48:31;11.67;;;3.97;;
47529;SDS011;33272;51.922;7.730;2023-03-14T13:51:01;7.97;;;2.20;;
47529;SDS011;33272;51.922;7.730;2023-03-14T13:53:31;6.73;;;2.30;;
47529;SDS011;33272;51.922;7.730;2023-03-14T13:56:08;14.07;;;3.13;;
47529;SDS011;33272;51.922;7.730;2023-03-14T13:58:39;15.53;;;3.30;;
47529;SDS011;33272;51.922;7.730;2023-03-14T14:01:10;8.23;;;2.47;;
47529;SDS011;33272;51.922;7.730;2023-03-14T14:03:42;9.57;;;4.03;;
47529;SDS011;33272;51.922;7.730;2023-03-14T14:06:16;12.93;;;2.90;;
47529;SDS011;33272;51.922;7.730;2023-03-14T14:08:52;10.87;;;2.97;;
47529;SDS011;33272;51.922;7.730;2023-03-14T14:11:22;10.97;;;3.00;;
47529;SDS011;33272;51.922;7.730;2023-03-14T14:14:10;8.63;;;2.67;;
47529;SDS011;33272;51.922;7.730;2023-03-14T14:16:43;8.23;;;2.70;;
47529;SDS011;33272;51.922;7.730;2023-03-14T14:19:12;8.30;;;2.43;;
47529;SDS011;33272;51.922;7.730;2023-03-14T14:21:41;9.07;;;2.60;;
47529;SDS011;33272;51.922;7.730;2023-03-14T14:24:09;6.47;;;2.10;;
47529;SDS011;33272;51.922;7.730;2023-03-14T14:26:40;10.27;;;2.70;;
47529;SDS011;33272;51.922;7.730;2023-03-14T14:29:18;10.70;;;2.77;;
47529;SDS011;33272;51.922;7.730;2023-03-14T14:31:59;9.70;;;2.27;;
47529;SDS011;33272;51.922;7.730;2023-03-14T14:34:29;9.60;;;2.07;;
47529;SDS011;33272;51.922;7.730;2023-03-14T14:37:04;7.67;;;2.10;;
47529;SDS011;33272;51.922;7.730;2023-03-14T14:39:40;10.67;;;2.60;;
47529;SDS011;33272;51.922;7.730;2023-03-14T14:42:12;4.40;;;1.87;;
47529;SDS011;33272;51.922;7.730;2023-03-14T14:44:42;7.27;;;2.60;;
47529;SDS011;33272;51.922;7.730;2023-03-14T14:47:12;10.47;;;2.70;;
47529;SDS011;33272;51.922;7.730;2023-03-14T14:49:40;10.80;;;2.80;;
47529;SDS011;33272;51.922;7.730;2023-03-14T14:52:09;11.53;;;2.27;;
47529;SDS011;33272;51.922;7.730;2023-03-14T14:54:42;8.83;;;2.93;;
47529;SDS011;33272;51.922;7.730;2023-03-14T14:57:16;6.17;;;2.27;;
47529;SDS011;33272;51.922;7.730;2023-03-14T14:59:49;8.70;;;1.80;;
47529;SDS011;33272;51.922;7.730;2023-03-14T15:02:27;5.70;;;2.30;;
47529;SDS011;33272;51.922;7.730;2023-03-14T15:04:58;5.13;;;1.70;;
47529;SDS011;33272;51.922;7.730;2023-03-14T15:07:26;6.87;;;2.20;;
47529;SDS011;33272;51.922;7.730;2023-03-14T15:09:52;4.93;;;2.07;;
47529;SDS011;33272;51.922;7.730;2023-03-14T15:12:19;3.40;;;1.40;;
47529;SDS011;33272;51.922;7.730;2023-03-14T15:14:50;3.77;;;1.87;;
47529;SDS011;33272;51.922;7.730;2023-03-14T15:17:17;5.27;;;1.90;;
47529;SDS011;33272;51.922;7.730;2023-03-14T15:19:44;4.00;;;1.97;;